This is the latest recevied weather packets stored in our database for station/object IZ1UQG-2. If no packets are shown the sender has not sent any weather packets the latest 10 day(s).
| Time | Temp. | Humidity | Pressure | Rain* | Wind** | Luminosity | Snow |
|---|---|---|---|---|---|---|---|
| 1777845665 | 16.67° C | 60% | 1015.8 hPa | 0 mm | - | 0 W/m² | - |
| 1777844884 | 17.22° C | 59% | 1015.8 hPa | 0 mm | - | 0 W/m² | - |
| 1777844713 | 17.22° C | 59% | 1015.7 hPa | 0 mm | - | 0 W/m² | - |
| 1777844524 | 17.22° C | 59% | 1015.7 hPa | 0 mm | - | 0 W/m² | - |
| 1777844463 | 17.22° C | 59% | 1015.7 hPa | 0 mm | - | 0 W/m² | - |
| 1777844163 | 16.67° C | 60% | 1015.7 hPa | 0 mm | - | 0 W/m² | - |
| 1777844106 | 16.67° C | 60% | 1015.7 hPa | 0 mm | - | 0 W/m² | - |
| 1777843804 | 16.67° C | 61% | 1015.5 hPa | 0 mm | - | 0 W/m² | - |
| 1777843743 | 16.67° C | 61% | 1015.7 hPa | 0 mm | - | 0 W/m² | - |
| 1777842604 | 17.22° C | 59% | 1015.3 hPa | 0 mm | - | 0 W/m² | - |
| 1777842424 | 16.67° C | 59% | 1015.3 hPa | 0 mm | - | 0 W/m² | - |
| 1777842124 | 16.67° C | 59% | 1015.3 hPa | 0 mm | - | 0 W/m² | - |
| 1777841824 | 16.67° C | 59% | 1015.4 hPa | 0 mm | - | 0 W/m² | - |
| 1777841775 | 16.67° C | 59% | 1015.3 hPa | 0 mm | - | 0 W/m² | - |
| 1777840144 | 17.22° C | 58% | 1015.2 hPa | 0 mm | - | 0 W/m² | - |
| 1777838705 | 17.22° C | 57% | 1015.2 hPa | 0 mm | - | 0 W/m² | - |
| 1777838284 | 17.22° C | 57% | 1015.3 hPa | 0 mm | - | 0 W/m² | - |
| 1777837565 | 17.78° C | 56% | 1015 hPa | 0 mm | - | 0 W/m² | - |
| 1777837024 | 17.78° C | 56% | 1015 hPa | 0 mm | - | 0 W/m² | - |
| 1777836664 | 17.78° C | 56% | 1015 hPa | 0 mm | - | 0 W/m² | - |
| 1777836424 | 17.78° C | 56% | 1014.9 hPa | 0 mm | - | 0 W/m² | - |
| 1777836184 | 17.78° C | 57% | 1014.9 hPa | 0 mm | - | 0 W/m² | - |
| 1777836134 | 17.78° C | 57% | 1014.9 hPa | 0 mm | - | 0 W/m² | - |
| 1777835045 | 18.89° C | 55% | 1014.6 hPa | 0 mm | - | 0 W/m² | - |
| 1777834624 | 19.44° C | 55% | 1014.5 hPa | 0 mm | - | 0 W/m² | - |
* Rain latest hour (hover to see other rain measurements)
** Current wind speed in m/s (hover to see current wind gust speed)